sensor_id;sensor_type;location;lat;lon;timestamp;P1;durP1;ratioP1;P2;durP2;ratioP2
13941;SDS011;7043;51.630;7.254;2022-07-30T00:01:12;12.63;;;11.17;;
13941;SDS011;7043;51.630;7.254;2022-07-30T00:03:38;12.00;;;10.80;;
13941;SDS011;7043;51.630;7.254;2022-07-30T00:06:04;12.80;;;11.50;;
13941;SDS011;7043;51.630;7.254;2022-07-30T00:08:30;12.50;;;11.20;;
13941;SDS011;7043;51.630;7.254;2022-07-30T00:10:56;12.17;;;10.90;;
13941;SDS011;7043;51.630;7.254;2022-07-30T00:13:22;13.20;;;11.57;;
13941;SDS011;7043;51.630;7.254;2022-07-30T00:15:48;12.43;;;11.23;;
13941;SDS011;7043;51.630;7.254;2022-07-30T00:18:14;13.03;;;10.70;;
13941;SDS011;7043;51.630;7.254;2022-07-30T00:20:40;11.37;;;10.27;;
13941;SDS011;7043;51.630;7.254;2022-07-30T00:23:06;12.50;;;11.17;;
13941;SDS011;7043;51.630;7.254;2022-07-30T00:25:32;11.63;;;10.00;;
13941;SDS011;7043;51.630;7.254;2022-07-30T00:27:58;11.47;;;10.00;;
13941;SDS011;7043;51.630;7.254;2022-07-30T00:30:24;13.60;;;11.00;;
13941;SDS011;7043;51.630;7.254;2022-07-30T00:32:50;10.93;;;9.83;;
13941;SDS011;7043;51.630;7.254;2022-07-30T00:35:16;11.43;;;10.30;;
13941;SDS011;7043;51.630;7.254;2022-07-30T00:37:42;13.17;;;10.30;;
13941;SDS011;7043;51.630;7.254;2022-07-30T00:40:08;12.23;;;10.87;;
13941;SDS011;7043;51.630;7.254;2022-07-30T00:45:04;11.87;;;10.60;;
13941;SDS011;7043;51.630;7.254;2022-07-30T00:47:30;12.30;;;11.10;;
13941;SDS011;7043;51.630;7.254;2022-07-30T00:49:56;12.83;;;11.07;;
13941;SDS011;7043;51.630;7.254;2022-07-30T00:52:22;12.83;;;11.53;;
13941;SDS011;7043;51.630;7.254;2022-07-30T00:54:48;12.50;;;11.20;;
13941;SDS011;7043;51.630;7.254;2022-07-30T00:57:14;13.63;;;12.20;;
13941;SDS011;7043;51.630;7.254;2022-07-30T00:59:40;12.60;;;11.50;;
13941;SDS011;7043;51.630;7.254;2022-07-30T01:02:07;12.70;;;11.40;;
13941;SDS011;7043;51.630;7.254;2022-07-30T01:04:33;13.77;;;11.50;;
13941;SDS011;7043;51.630;7.254;2022-07-30T01:06:58;12.20;;;11.07;;
13941;SDS011;7043;51.630;7.254;2022-07-30T01:09:24;13.37;;;12.00;;
13941;SDS011;7043;51.630;7.254;2022-07-30T01:11:50;12.63;;;11.43;;
13941;SDS011;7043;51.630;7.254;2022-07-30T01:14:16;12.50;;;11.33;;
13941;SDS011;7043;51.630;7.254;2022-07-30T01:16:42;12.73;;;11.43;;
13941;SDS011;7043;51.630;7.254;2022-07-30T01:19:11;14.33;;;12.20;;
13941;SDS011;7043;51.630;7.254;2022-07-30T01:22:05;13.23;;;11.97;;
13941;SDS011;7043;51.630;7.254;2022-07-30T01:24:35;16.00;;;12.40;;
13941;SDS011;7043;51.630;7.254;2022-07-30T01:27:03;14.20;;;12.70;;
13941;SDS011;7043;51.630;7.254;2022-07-30T01:29:29;13.50;;;12.13;;
13941;SDS011;7043;51.630;7.254;2022-07-30T01:31:56;15.17;;;12.70;;
13941;SDS011;7043;51.630;7.254;2022-07-30T01:34:24;13.37;;;12.17;;
13941;SDS011;7043;51.630;7.254;2022-07-30T01:36:50;13.63;;;11.97;;
13941;SDS011;7043;51.630;7.254;2022-07-30T01:39:17;12.93;;;11.67;;
13941;SDS011;7043;51.630;7.254;2022-07-30T01:41:44;13.67;;;12.27;;
13941;SDS011;7043;51.630;7.254;2022-07-30T01:44:11;12.93;;;11.70;;
13941;SDS011;7043;51.630;7.254;2022-07-30T01:46:37;12.90;;;11.53;;
13941;SDS011;7043;51.630;7.254;2022-07-30T01:49:04;13.00;;;11.90;;
13941;SDS011;7043;51.630;7.254;2022-07-30T01:51:32;13.53;;;11.40;;
13941;SDS011;7043;51.630;7.254;2022-07-30T01:53:59;12.33;;;11.00;;
13941;SDS011;7043;51.630;7.254;2022-07-30T01:56:25;12.60;;;11.30;;
13941;SDS011;7043;51.630;7.254;2022-07-30T01:58:53;12.90;;;11.70;;
13941;SDS011;7043;51.630;7.254;2022-07-30T02:01:19;12.83;;;11.53;;
13941;SDS011;7043;51.630;7.254;2022-07-30T02:03:46;12.90;;;11.67;;
13941;SDS011;7043;51.630;7.254;2022-07-30T02:06:22;12.30;;;11.10;;
13941;SDS011;7043;51.630;7.254;2022-07-30T02:08:54;12.57;;;11.40;;
13941;SDS011;7043;51.630;7.254;2022-07-30T02:11:21;12.13;;;11.13;;
13941;SDS011;7043;51.630;7.254;2022-07-30T02:14:07;13.03;;;11.73;;
13941;SDS011;7043;51.630;7.254;2022-07-30T02:16:35;13.03;;;11.80;;
13941;SDS011;7043;51.630;7.254;2022-07-30T02:19:09;15.40;;;12.83;;
13941;SDS011;7043;51.630;7.254;2022-07-30T02:21:37;12.57;;;11.40;;
13941;SDS011;7043;51.630;7.254;2022-07-30T02:24:04;12.87;;;11.60;;
13941;SDS011;7043;51.630;7.254;2022-07-30T02:26:30;12.77;;;11.60;;
13941;SDS011;7043;51.630;7.254;2022-07-30T02:28:58;13.43;;;12.13;;
13941;SDS011;7043;51.630;7.254;2022-07-30T02:31:26;16.03;;;12.03;;
13941;SDS011;7043;51.630;7.254;2022-07-30T02:33:54;13.43;;;11.80;;
13941;SDS011;7043;51.630;7.254;2022-07-30T02:36:20;13.50;;;12.23;;
13941;SDS011;7043;51.630;7.254;2022-07-30T02:38:47;13.37;;;12.13;;
13941;SDS011;7043;51.630;7.254;2022-07-30T02:41:14;13.50;;;12.13;;
13941;SDS011;7043;51.630;7.254;2022-07-30T02:43:41;12.80;;;11.60;;
13941;SDS011;7043;51.630;7.254;2022-07-30T02:46:07;13.90;;;10.93;;
13941;SDS011;7043;51.630;7.254;2022-07-30T02:48:34;12.30;;;11.00;;
13941;SDS011;7043;51.630;7.254;2022-07-30T02:51:01;11.53;;;10.33;;
13941;SDS011;7043;51.630;7.254;2022-07-30T02:53:27;10.93;;;9.93;;
13941;SDS011;7043;51.630;7.254;2022-07-30T02:55:54;12.37;;;11.00;;
13941;SDS011;7043;51.630;7.254;2022-07-30T02:58:22;11.93;;;10.60;;
13941;SDS011;7043;51.630;7.254;2022-07-30T03:00:49;14.03;;;11.10;;
13941;SDS011;7043;51.630;7.254;2022-07-30T03:03:16;12.90;;;11.70;;
13941;SDS011;7043;51.630;7.254;2022-07-30T03:05:42;13.90;;;12.40;;
13941;SDS011;7043;51.630;7.254;2022-07-30T03:08:09;13.47;;;12.17;;
13941;SDS011;7043;51.630;7.254;2022-07-30T03:10:38;13.03;;;11.80;;
13941;SDS011;7043;51.630;7.254;2022-07-30T03:13:05;13.77;;;12.37;;
13941;SDS011;7043;51.630;7.254;2022-07-30T03:15:32;13.63;;;12.27;;
13941;SDS011;7043;51.630;7.254;2022-07-30T03:17:59;14.30;;;12.90;;
13941;SDS011;7043;51.630;7.254;2022-07-30T03:20:27;14.53;;;13.03;;
13941;SDS011;7043;51.630;7.254;2022-07-30T03:22:54;15.57;;;14.07;;
13941;SDS011;7043;51.630;7.254;2022-07-30T03:25:22;15.37;;;13.90;;
13941;SDS011;7043;51.630;7.254;2022-07-30T03:27:50;17.37;;;15.67;;
13941;SDS011;7043;51.630;7.254;2022-07-30T03:30:16;17.40;;;15.60;;
13941;SDS011;7043;51.630;7.254;2022-07-30T03:32:43;18.37;;;16.43;;
13941;SDS011;7043;51.630;7.254;2022-07-30T03:35:09;19.70;;;17.83;;
13941;SDS011;7043;51.630;7.254;2022-07-30T03:37:36;20.70;;;18.77;;
13941;SDS011;7043;51.630;7.254;2022-07-30T03:40:03;20.47;;;18.47;;
13941;SDS011;7043;51.630;7.254;2022-07-30T03:42:30;21.13;;;19.10;;
13941;SDS011;7043;51.630;7.254;2022-07-30T03:44:56;21.83;;;19.57;;
13941;SDS011;7043;51.630;7.254;2022-07-30T03:47:22;21.00;;;18.83;;
13941;SDS011;7043;51.630;7.254;2022-07-30T03:49:49;21.03;;;18.93;;
13941;SDS011;7043;51.630;7.254;2022-07-30T03:52:16;21.67;;;19.47;;
13941;SDS011;7043;51.630;7.254;2022-07-30T03:54:43;21.70;;;19.63;;
13941;SDS011;7043;51.630;7.254;2022-07-30T03:57:09;22.60;;;20.27;;
13941;SDS011;7043;51.630;7.254;2022-07-30T03:59:35;21.77;;;19.63;;
13941;SDS011;7043;51.630;7.254;2022-07-30T04:02:01;22.00;;;19.70;;
13941;SDS011;7043;51.630;7.254;2022-07-30T04:04:28;22.13;;;20.07;;
13941;SDS011;7043;51.630;7.254;2022-07-30T04:06:54;22.33;;;20.13;;
13941;SDS011;7043;51.630;7.254;2022-07-30T04:09:21;22.13;;;19.93;;
13941;SDS011;7043;51.630;7.254;2022-07-30T04:11:47;22.17;;;19.80;;
13941;SDS011;7043;51.630;7.254;2022-07-30T04:14:13;23.20;;;21.00;;
13941;SDS011;7043;51.630;7.254;2022-07-30T04:19:25;24.87;;;22.30;;
13941;SDS011;7043;51.630;7.254;2022-07-30T04:21:53;23.70;;;21.30;;
13941;SDS011;7043;51.630;7.254;2022-07-30T04:24:20;24.67;;;21.93;;
13941;SDS011;7043;51.630;7.254;2022-07-30T04:26:47;26.63;;;23.87;;
13941;SDS011;7043;51.630;7.254;2022-07-30T04:29:13;25.67;;;23.13;;
13941;SDS011;7043;51.630;7.254;2022-07-30T04:31:40;29.10;;;24.80;;
13941;SDS011;7043;51.630;7.254;2022-07-30T04:34:06;27.83;;;24.93;;
13941;SDS011;7043;51.630;7.254;2022-07-30T04:36:32;27.40;;;24.73;;
13941;SDS011;7043;51.630;7.254;2022-07-30T04:38:59;28.60;;;25.60;;
13941;SDS011;7043;51.630;7.254;2022-07-30T04:41:25;27.73;;;24.57;;
13941;SDS011;7043;51.630;7.254;2022-07-30T04:43:52;29.03;;;26.00;;
13941;SDS011;7043;51.630;7.254;2022-07-30T04:46:18;28.67;;;25.77;;
13941;SDS011;7043;51.630;7.254;2022-07-30T04:48:44;28.00;;;25.20;;
13941;SDS011;7043;51.630;7.254;2022-07-30T04:51:16;29.20;;;26.03;;
13941;SDS011;7043;51.630;7.254;2022-07-30T04:53:43;29.90;;;26.77;;
13941;SDS011;7043;51.630;7.254;2022-07-30T04:56:10;32.50;;;27.90;;
13941;SDS011;7043;51.630;7.254;2022-07-30T04:58:36;30.17;;;27.17;;
13941;SDS011;7043;51.630;7.254;2022-07-30T05:01:05;34.83;;;29.30;;
13941;SDS011;7043;51.630;7.254;2022-07-30T05:03:31;49.37;;;35.93;;
13941;SDS011;7043;51.630;7.254;2022-07-30T05:05:59;55.33;;;37.67;;
13941;SDS011;7043;51.630;7.254;2022-07-30T05:08:25;58.77;;;40.53;;
13941;SDS011;7043;51.630;7.254;2022-07-30T05:10:52;62.33;;;41.90;;
13941;SDS011;7043;51.630;7.254;2022-07-30T05:13:18;71.03;;;46.17;;
13941;SDS011;7043;51.630;7.254;2022-07-30T05:15:44;76.47;;;46.50;;
13941;SDS011;7043;51.630;7.254;2022-07-30T05:18:11;82.53;;;52.33;;
13941;SDS011;7043;51.630;7.254;2022-07-30T05:20:37;86.07;;;55.10;;
13941;SDS011;7043;51.630;7.254;2022-07-30T05:23:03;85.37;;;54.83;;
13941;SDS011;7043;51.630;7.254;2022-07-30T05:25:30;84.13;;;54.80;;
13941;SDS011;7043;51.630;7.254;2022-07-30T05:27:56;90.53;;;55.07;;
13941;SDS011;7043;51.630;7.254;2022-07-30T05:30:22;88.47;;;52.80;;
13941;SDS011;7043;51.630;7.254;2022-07-30T05:32:48;106.70;;;57.93;;
13941;SDS011;7043;51.630;7.254;2022-07-30T05:35:14;96.60;;;58.00;;
13941;SDS011;7043;51.630;7.254;2022-07-30T05:37:40;102.67;;;58.57;;
13941;SDS011;7043;51.630;7.254;2022-07-30T05:40:07;102.17;;;57.50;;
13941;SDS011;7043;51.630;7.254;2022-07-30T05:42:33;100.37;;;61.93;;
13941;SDS011;7043;51.630;7.254;2022-07-30T05:44:59;106.13;;;60.27;;
13941;SDS011;7043;51.630;7.254;2022-07-30T05:47:25;104.20;;;62.13;;
13941;SDS011;7043;51.630;7.254;2022-07-30T05:49:51;109.70;;;64.37;;
13941;SDS011;7043;51.630;7.254;2022-07-30T05:52:17;116.00;;;68.47;;
13941;SDS011;7043;51.630;7.254;2022-07-30T05:54:43;112.93;;;62.07;;
13941;SDS011;7043;51.630;7.254;2022-07-30T05:57:09;121.07;;;68.47;;
13941;SDS011;7043;51.630;7.254;2022-07-30T05:59:35;120.17;;;68.83;;
13941;SDS011;7043;51.630;7.254;2022-07-30T06:02:02;114.25;;;71.78;;
13941;SDS011;7043;51.630;7.254;2022-07-30T06:04:28;107.97;;;65.17;;
13941;SDS011;7043;51.630;7.254;2022-07-30T06:06:54;110.37;;;65.37;;
13941;SDS011;7043;51.630;7.254;2022-07-30T06:09:20;108.03;;;62.57;;
13941;SDS011;7043;51.630;7.254;2022-07-30T06:11:46;107.23;;;64.80;;
13941;SDS011;7043;51.630;7.254;2022-07-30T06:14:12;100.63;;;61.87;;
13941;SDS011;7043;51.630;7.254;2022-07-30T06:16:38;100.93;;;61.60;;
13941;SDS011;7043;51.630;7.254;2022-07-30T06:19:04;87.93;;;55.60;;
13941;SDS011;7043;51.630;7.254;2022-07-30T06:21:30;84.13;;;53.90;;
13941;SDS011;7043;51.630;7.254;2022-07-30T06:23:56;83.23;;;53.60;;
13941;SDS011;7043;51.630;7.254;2022-07-30T06:26:22;84.40;;;53.13;;
13941;SDS011;7043;51.630;7.254;2022-07-30T06:28:48;78.43;;;50.60;;
13941;SDS011;7043;51.630;7.254;2022-07-30T06:31:14;82.33;;;53.27;;
13941;SDS011;7043;51.630;7.254;2022-07-30T06:33:40;79.33;;;53.00;;
13941;SDS011;7043;51.630;7.254;2022-07-30T06:36:07;91.13;;;54.07;;
13941;SDS011;7043;51.630;7.254;2022-07-30T06:38:33;86.67;;;53.90;;
13941;SDS011;7043;51.630;7.254;2022-07-30T06:40:59;93.03;;;56.90;;
13941;SDS011;7043;51.630;7.254;2022-07-30T06:43:25;88.80;;;57.33;;
13941;SDS011;7043;51.630;7.254;2022-07-30T06:45:51;87.57;;;55.30;;
13941;SDS011;7043;51.630;7.254;2022-07-30T06:48:17;80.03;;;54.00;;
13941;SDS011;7043;51.630;7.254;2022-07-30T06:50:43;79.90;;;52.63;;
13941;SDS011;7043;51.630;7.254;2022-07-30T06:53:10;76.40;;;50.20;;
13941;SDS011;7043;51.630;7.254;2022-07-30T06:55:36;62.93;;;45.60;;
13941;SDS011;7043;51.630;7.254;2022-07-30T06:58:02;54.67;;;41.00;;
13941;SDS011;7043;51.630;7.254;2022-07-30T07:00:28;42.07;;;33.97;;
13941;SDS011;7043;51.630;7.254;2022-07-30T07:02:54;35.23;;;30.33;;
13941;SDS011;7043;51.630;7.254;2022-07-30T07:05:20;35.87;;;30.67;;
13941;SDS011;7043;51.630;7.254;2022-07-30T07:07:47;36.53;;;30.73;;
13941;SDS011;7043;51.630;7.254;2022-07-30T07:10:13;34.27;;;30.67;;
13941;SDS011;7043;51.630;7.254;2022-07-30T07:12:39;34.03;;;30.40;;
13941;SDS011;7043;51.630;7.254;2022-07-30T07:15:05;32.87;;;28.07;;
13941;SDS011;7043;51.630;7.254;2022-07-30T07:17:31;32.47;;;29.07;;
13941;SDS011;7043;51.630;7.254;2022-07-30T07:19:57;34.17;;;29.43;;
13941;SDS011;7043;51.630;7.254;2022-07-30T07:22:24;32.83;;;29.43;;
13941;SDS011;7043;51.630;7.254;2022-07-30T07:24:50;33.87;;;30.07;;
13941;SDS011;7043;51.630;7.254;2022-07-30T07:27:16;32.33;;;28.83;;
13941;SDS011;7043;51.630;7.254;2022-07-30T07:29:42;30.53;;;27.37;;
13941;SDS011;7043;51.630;7.254;2022-07-30T07:32:08;31.83;;;28.30;;
13941;SDS011;7043;51.630;7.254;2022-07-30T07:34:34;32.73;;;29.27;;
13941;SDS011;7043;51.630;7.254;2022-07-30T07:37:00;35.87;;;29.97;;
13941;SDS011;7043;51.630;7.254;2022-07-30T07:39:26;32.57;;;28.47;;
13941;SDS011;7043;51.630;7.254;2022-07-30T07:41:52;34.00;;;29.63;;
13941;SDS011;7043;51.630;7.254;2022-07-30T07:44:18;32.03;;;28.63;;
13941;SDS011;7043;51.630;7.254;2022-07-30T07:46:44;31.30;;;27.90;;
13941;SDS011;7043;51.630;7.254;2022-07-30T07:49:10;32.20;;;28.03;;
13941;SDS011;7043;51.630;7.254;2022-07-30T07:51:36;31.23;;;27.87;;
13941;SDS011;7043;51.630;7.254;2022-07-30T07:54:02;28.50;;;25.50;;
13941;SDS011;7043;51.630;7.254;2022-07-30T07:56:28;28.63;;;25.53;;
13941;SDS011;7043;51.630;7.254;2022-07-30T07:58:54;29.80;;;26.43;;
13941;SDS011;7043;51.630;7.254;2022-07-30T08:01:21;28.13;;;25.17;;
13941;SDS011;7043;51.630;7.254;2022-07-30T08:03:47;28.83;;;25.93;;
13941;SDS011;7043;51.630;7.254;2022-07-30T08:06:13;27.33;;;24.43;;
13941;SDS011;7043;51.630;7.254;2022-07-30T08:08:39;27.67;;;24.17;;
13941;SDS011;7043;51.630;7.254;2022-07-30T08:11:05;25.03;;;22.40;;
13941;SDS011;7043;51.630;7.254;2022-07-30T08:13:32;25.57;;;22.97;;
13941;SDS011;7043;51.630;7.254;2022-07-30T08:15:58;22.73;;;20.37;;
13941;SDS011;7043;51.630;7.254;2022-07-30T08:18:26;22.90;;;20.50;;
13941;SDS011;7043;51.630;7.254;2022-07-30T08:20:52;21.67;;;19.40;;
13941;SDS011;7043;51.630;7.254;2022-07-30T08:23:18;20.83;;;18.83;;
13941;SDS011;7043;51.630;7.254;2022-07-30T08:25:46;21.73;;;19.53;;
13941;SDS011;7043;51.630;7.254;2022-07-30T08:28:12;21.37;;;18.07;;
13941;SDS011;7043;51.630;7.254;2022-07-30T08:30:38;18.63;;;16.70;;
13941;SDS011;7043;51.630;7.254;2022-07-30T08:33:04;18.50;;;16.70;;
13941;SDS011;7043;51.630;7.254;2022-07-30T08:35:31;16.93;;;15.33;;
13941;SDS011;7043;51.630;7.254;2022-07-30T08:37:57;17.50;;;15.70;;
13941;SDS011;7043;51.630;7.254;2022-07-30T08:40:24;17.30;;;15.50;;
13941;SDS011;7043;51.630;7.254;2022-07-30T08:42:50;17.90;;;16.00;;
13941;SDS011;7043;51.630;7.254;2022-07-30T08:45:17;17.43;;;15.73;;
13941;SDS011;7043;51.630;7.254;2022-07-30T08:47:43;17.50;;;15.80;;
13941;SDS011;7043;51.630;7.254;2022-07-30T08:50:10;16.93;;;15.37;;
13941;SDS011;7043;51.630;7.254;2022-07-30T08:52:36;18.80;;;16.80;;
13941;SDS011;7043;51.630;7.254;2022-07-30T08:55:03;16.90;;;15.20;;
13941;SDS011;7043;51.630;7.254;2022-07-30T08:57:30;16.83;;;15.07;;
13941;SDS011;7043;51.630;7.254;2022-07-30T08:59:57;17.13;;;15.13;;
13941;SDS011;7043;51.630;7.254;2022-07-30T09:02:23;15.60;;;14.00;;
13941;SDS011;7043;51.630;7.254;2022-07-30T09:04:50;16.23;;;14.53;;
13941;SDS011;7043;51.630;7.254;2022-07-30T09:07:16;15.40;;;13.93;;
13941;SDS011;7043;51.630;7.254;2022-07-30T09:09:43;15.90;;;14.30;;
13941;SDS011;7043;51.630;7.254;2022-07-30T09:15:00;14.80;;;12.57;;
13941;SDS011;7043;51.630;7.254;2022-07-30T09:17:26;14.00;;;12.50;;
13941;SDS011;7043;51.630;7.254;2022-07-30T09:20:02;13.60;;;12.30;;
13941;SDS011;7043;51.630;7.254;2022-07-30T09:22:41;13.02;;;11.40;;
13941;SDS011;7043;51.630;7.254;2022-07-30T09:25:07;15.25;;;11.20;;
13941;SDS011;7043;51.630;7.254;2022-07-30T09:27:43;17.00;;;11.57;;
13941;SDS011;7043;51.630;7.254;2022-07-30T09:30:09;14.07;;;11.35;;
13941;SDS011;7043;51.630;7.254;2022-07-30T09:32:54;13.13;;;11.07;;
13941;SDS011;7043;51.630;7.254;2022-07-30T09:35:21;11.95;;;10.73;;
13941;SDS011;7043;51.630;7.254;2022-07-30T09:37:56;11.90;;;10.60;;
13941;SDS011;7043;51.630;7.254;2022-07-30T09:40:23;13.07;;;10.05;;
13941;SDS011;7043;51.630;7.254;2022-07-30T09:43:00;10.30;;;9.10;;
13941;SDS011;7043;51.630;7.254;2022-07-30T09:45:26;10.63;;;9.55;;
13941;SDS011;7043;51.630;7.254;2022-07-30T09:47:52;12.48;;;9.98;;
13941;SDS011;7043;51.630;7.254;2022-07-30T09:50:18;12.02;;;9.27;;
13941;SDS011;7043;51.630;7.254;2022-07-30T09:52:45;12.50;;;10.23;;
13941;SDS011;7043;51.630;7.254;2022-07-30T09:55:13;10.75;;;9.65;;
13941;SDS011;7043;51.630;7.254;2022-07-30T09:57:57;10.10;;;9.10;;
13941;SDS011;7043;51.630;7.254;2022-07-30T10:00:24;11.07;;;9.05;;
13941;SDS011;7043;51.630;7.254;2022-07-30T10:02:51;10.52;;;9.43;;
13941;SDS011;7043;51.630;7.254;2022-07-30T10:05:17;12.73;;;9.60;;
13941;SDS011;7043;51.630;7.254;2022-07-30T10:07:48;12.02;;;9.18;;
13941;SDS011;7043;51.630;7.254;2022-07-30T10:10:16;10.70;;;9.60;;
13941;SDS011;7043;51.630;7.254;2022-07-30T10:12:42;11.57;;;10.40;;
13941;SDS011;7043;51.630;7.254;2022-07-30T10:15:09;13.52;;;12.18;;
13941;SDS011;7043;51.630;7.254;2022-07-30T10:17:35;13.43;;;11.20;;
13941;SDS011;7043;51.630;7.254;2022-07-30T10:20:03;11.30;;;10.07;;
13941;SDS011;7043;51.630;7.254;2022-07-30T10:22:30;13.43;;;11.15;;
13941;SDS011;7043;51.630;7.254;2022-07-30T10:24:56;10.32;;;8.05;;
13941;SDS011;7043;51.630;7.254;2022-07-30T10:27:22;11.27;;;9.75;;
13941;SDS011;7043;51.630;7.254;2022-07-30T10:29:48;10.93;;;9.73;;
13941;SDS011;7043;51.630;7.254;2022-07-30T10:32:14;11.88;;;10.68;;
13941;SDS011;7043;51.630;7.254;2022-07-30T10:34:40;11.05;;;9.50;;
13941;SDS011;7043;51.630;7.254;2022-07-30T10:37:07;9.95;;;8.65;;
13941;SDS011;7043;51.630;7.254;2022-07-30T10:39:36;9.90;;;8.88;;
13941;SDS011;7043;51.630;7.254;2022-07-30T10:44:54;10.65;;;8.40;;
13941;SDS011;7043;51.630;7.254;2022-07-30T10:47:23;10.85;;;8.50;;
13941;SDS011;7043;51.630;7.254;2022-07-30T10:50:09;10.40;;;9.20;;
13941;SDS011;7043;51.630;7.254;2022-07-30T10:52:43;8.98;;;8.15;;
13941;SDS011;7043;51.630;7.254;2022-07-30T10:55:14;8.98;;;7.70;;
13941;SDS011;7043;51.630;7.254;2022-07-30T11:00:26;8.10;;;7.22;;
13941;SDS011;7043;51.630;7.254;2022-07-30T11:03:11;7.45;;;6.63;;
13941;SDS011;7043;51.630;7.254;2022-07-30T11:05:38;8.23;;;7.25;;
13941;SDS011;7043;51.630;7.254;2022-07-30T11:10:49;9.05;;;6.25;;
13941;SDS011;7043;51.630;7.254;2022-07-30T11:13:15;6.85;;;6.10;;
13941;SDS011;7043;51.630;7.254;2022-07-30T11:15:52;8.60;;;5.78;;
13941;SDS011;7043;51.630;7.254;2022-07-30T11:18:24;8.98;;;7.35;;
13941;SDS011;7043;51.630;7.254;2022-07-30T11:23:36;9.27;;;7.10;;
13941;SDS011;7043;51.630;7.254;2022-07-30T11:26:03;7.18;;;6.47;;
13941;SDS011;7043;51.630;7.254;2022-07-30T11:28:42;6.70;;;5.80;;
13941;SDS011;7043;51.630;7.254;2022-07-30T11:37:09;5.63;;;4.68;;
13941;SDS011;7043;51.630;7.254;2022-07-30T11:42:23;6.10;;;4.60;;
13941;SDS011;7043;51.630;7.254;2022-07-30T11:44:49;6.57;;;3.90;;
13941;SDS011;7043;51.630;7.254;2022-07-30T11:47:16;5.88;;;3.85;;
13941;SDS011;7043;51.630;7.254;2022-07-30T11:49:44;6.75;;;3.58;;
13941;SDS011;7043;51.630;7.254;2022-07-30T11:52:10;4.38;;;3.60;;
13941;SDS011;7043;51.630;7.254;2022-07-30T11:54:50;5.95;;;4.18;;
13941;SDS011;7043;51.630;7.254;2022-07-30T11:57:16;4.55;;;3.55;;
13941;SDS011;7043;51.630;7.254;2022-07-30T12:00:00;4.78;;;3.28;;
13941;SDS011;7043;51.630;7.254;2022-07-30T12:02:26;4.45;;;3.50;;
13941;SDS011;7043;51.630;7.254;2022-07-30T12:04:52;7.53;;;4.03;;
13941;SDS011;7043;51.630;7.254;2022-07-30T12:07:22;7.45;;;3.70;;
13941;SDS011;7043;51.630;7.254;2022-07-30T12:09:48;5.63;;;3.35;;
13941;SDS011;7043;51.630;7.254;2022-07-30T12:12:21;6.03;;;3.55;;
13941;SDS011;7043;51.630;7.254;2022-07-30T12:14:51;4.97;;;3.30;;
13941;SDS011;7043;51.630;7.254;2022-07-30T12:17:17;8.05;;;3.33;;
13941;SDS011;7043;51.630;7.254;2022-07-30T12:19:46;5.50;;;3.00;;
13941;SDS011;7043;51.630;7.254;2022-07-30T12:22:12;5.30;;;2.90;;
13941;SDS011;7043;51.630;7.254;2022-07-30T12:24:38;3.83;;;2.60;;
13941;SDS011;7043;51.630;7.254;2022-07-30T12:27:05;3.92;;;2.20;;
13941;SDS011;7043;51.630;7.254;2022-07-30T12:29:32;3.40;;;2.25;;
13941;SDS011;7043;51.630;7.254;2022-07-30T12:31:58;4.70;;;2.65;;
13941;SDS011;7043;51.630;7.254;2022-07-30T12:34:24;4.30;;;2.78;;
13941;SDS011;7043;51.630;7.254;2022-07-30T12:36:51;4.85;;;2.60;;
13941;SDS011;7043;51.630;7.254;2022-07-30T12:39:21;3.45;;;2.33;;
13941;SDS011;7043;51.630;7.254;2022-07-30T12:41:48;4.05;;;2.42;;
13941;SDS011;7043;51.630;7.254;2022-07-30T12:46:59;5.18;;;2.20;;
13941;SDS011;7043;51.630;7.254;2022-07-30T12:49:30;3.25;;;2.30;;
13941;SDS011;7043;51.630;7.254;2022-07-30T12:51:56;2.67;;;2.20;;
13941;SDS011;7043;51.630;7.254;2022-07-30T12:54:22;3.70;;;2.47;;
13941;SDS011;7043;51.630;7.254;2022-07-30T12:56:55;3.65;;;2.70;;
13941;SDS011;7043;51.630;7.254;2022-07-30T12:59:22;3.78;;;2.45;;
13941;SDS011;7043;51.630;7.254;2022-07-30T13:01:49;4.68;;;2.40;;
13941;SDS011;7043;51.630;7.254;2022-07-30T13:04:16;5.05;;;2.60;;
13941;SDS011;7043;51.630;7.254;2022-07-30T13:06:42;4.30;;;2.38;;
13941;SDS011;7043;51.630;7.254;2022-07-30T13:09:17;5.50;;;2.40;;
13941;SDS011;7043;51.630;7.254;2022-07-30T13:11:44;4.15;;;2.15;;
13941;SDS011;7043;51.630;7.254;2022-07-30T13:14:11;3.03;;;2.20;;
13941;SDS011;7043;51.630;7.254;2022-07-30T13:16:39;5.00;;;1.90;;
13941;SDS011;7043;51.630;7.254;2022-07-30T13:19:07;3.28;;;2.03;;
13941;SDS011;7043;51.630;7.254;2022-07-30T13:21:44;3.03;;;1.65;;
13941;SDS011;7043;51.630;7.254;2022-07-30T13:24:11;3.28;;;2.28;;
13941;SDS011;7043;51.630;7.254;2022-07-30T13:26:37;5.25;;;2.00;;
13941;SDS011;7043;51.630;7.254;2022-07-30T13:29:03;2.70;;;1.95;;
13941;SDS011;7043;51.630;7.254;2022-07-30T13:31:29;2.17;;;1.92;;
13941;SDS011;7043;51.630;7.254;2022-07-30T13:33:55;3.67;;;2.22;;
13941;SDS011;7043;51.630;7.254;2022-07-30T13:36:21;2.05;;;1.80;;
13941;SDS011;7043;51.630;7.254;2022-07-30T13:38:48;3.63;;;1.83;;
13941;SDS011;7043;51.630;7.254;2022-07-30T13:41:14;4.55;;;2.33;;
13941;SDS011;7043;51.630;7.254;2022-07-30T13:43:43;3.55;;;1.95;;
13941;SDS011;7043;51.630;7.254;2022-07-30T13:46:09;3.72;;;2.50;;
13941;SDS011;7043;51.630;7.254;2022-07-30T13:48:35;2.80;;;2.30;;
13941;SDS011;7043;51.630;7.254;2022-07-30T13:51:02;4.57;;;2.60;;
13941;SDS011;7043;51.630;7.254;2022-07-30T13:53:28;3.38;;;1.77;;
13941;SDS011;7043;51.630;7.254;2022-07-30T13:55:54;2.80;;;2.20;;
13941;SDS011;7043;51.630;7.254;2022-07-30T13:58:20;2.00;;;1.75;;
13941;SDS011;7043;51.630;7.254;2022-07-30T14:00:46;3.97;;;1.85;;
13941;SDS011;7043;51.630;7.254;2022-07-30T14:03:13;3.50;;;3.13;;
13941;SDS011;7043;51.630;7.254;2022-07-30T14:05:39;7.15;;;4.88;;
13941;SDS011;7043;51.630;7.254;2022-07-30T14:08:06;3.13;;;2.20;;
13941;SDS011;7043;51.630;7.254;2022-07-30T14:10:32;6.68;;;3.17;;
13941;SDS011;7043;51.630;7.254;2022-07-30T14:12:59;6.53;;;3.97;;
13941;SDS011;7043;51.630;7.254;2022-07-30T14:15:26;3.50;;;2.13;;
13941;SDS011;7043;51.630;7.254;2022-07-30T14:17:53;3.00;;;1.95;;
13941;SDS011;7043;51.630;7.254;2022-07-30T14:20:19;6.90;;;2.90;;
13941;SDS011;7043;51.630;7.254;2022-07-30T14:22:45;3.80;;;2.70;;
13941;SDS011;7043;51.630;7.254;2022-07-30T14:25:12;4.25;;;2.72;;
13941;SDS011;7043;51.630;7.254;2022-07-30T14:27:38;3.92;;;2.38;;
13941;SDS011;7043;51.630;7.254;2022-07-30T14:30:05;3.90;;;2.42;;
13941;SDS011;7043;51.630;7.254;2022-07-30T14:32:31;3.85;;;2.35;;
13941;SDS011;7043;51.630;7.254;2022-07-30T14:34:57;3.63;;;2.10;;
13941;SDS011;7043;51.630;7.254;2022-07-30T14:37:23;5.35;;;2.13;;
13941;SDS011;7043;51.630;7.254;2022-07-30T14:39:52;2.53;;;1.70;;
13941;SDS011;7043;51.630;7.254;2022-07-30T14:42:18;2.70;;;2.13;;
13941;SDS011;7043;51.630;7.254;2022-07-30T14:44:45;2.28;;;1.90;;
13941;SDS011;7043;51.630;7.254;2022-07-30T14:47:11;3.25;;;1.65;;
13941;SDS011;7043;51.630;7.254;2022-07-30T14:49:38;2.63;;;1.60;;
13941;SDS011;7043;51.630;7.254;2022-07-30T14:52:04;2.00;;;1.80;;
13941;SDS011;7043;51.630;7.254;2022-07-30T14:54:30;3.38;;;2.10;;
13941;SDS011;7043;51.630;7.254;2022-07-30T14:56:56;2.80;;;2.00;;
13941;SDS011;7043;51.630;7.254;2022-07-30T14:59:22;2.17;;;1.83;;
13941;SDS011;7043;51.630;7.254;2022-07-30T15:01:48;2.85;;;1.80;;
13941;SDS011;7043;51.630;7.254;2022-07-30T15:04:15;3.15;;;1.83;;
13941;SDS011;7043;51.630;7.254;2022-07-30T15:06:41;4.03;;;1.80;;
13941;SDS011;7043;51.630;7.254;2022-07-30T15:09:07;3.70;;;1.70;;
13941;SDS011;7043;51.630;7.254;2022-07-30T15:11:34;3.75;;;1.55;;
13941;SDS011;7043;51.630;7.254;2022-07-30T15:14:00;1.75;;;1.30;;